createdAt,value
2019-04-18T00:00:29.819Z,0.00
2019-04-18T00:01:35.635Z,0.00
2019-04-18T00:02:41.189Z,0.00
2019-04-18T00:03:51.827Z,0.00
2019-04-18T00:04:51.888Z,0.00
2019-04-18T00:05:57.386Z,0.00
2019-04-18T00:07:03.449Z,0.00
2019-04-18T00:08:08.420Z,0.00
2019-04-18T00:09:13.931Z,0.00
2019-04-18T00:10:19.436Z,0.00
2019-04-18T00:11:24.958Z,0.00
2019-04-18T00:12:30.459Z,0.00
2019-04-18T00:13:35.973Z,0.00
2019-04-18T00:14:49.407Z,0.00
2019-04-18T00:15:50.066Z,0.00
2019-04-18T00:16:54.118Z,0.00
2019-04-18T00:18:04.875Z,0.00
2019-04-18T00:19:03.538Z,0.00
2019-04-18T00:20:09.134Z,0.00
2019-04-18T00:21:19.304Z,0.00
2019-04-18T00:22:23.558Z,0.00
2019-04-18T00:23:25.923Z,0.00
2019-04-18T00:24:34.394Z,0.00
2019-04-18T00:25:37.252Z,0.00
2019-04-18T00:26:43.991Z,0.00
2019-04-18T00:27:48.186Z,0.00
2019-04-18T00:28:54.086Z,0.00
2019-04-18T00:30:00.532Z,0.00
2019-04-18T00:31:06.587Z,0.00
2019-04-18T00:32:13.347Z,0.00
2019-04-18T00:33:18.130Z,0.00
2019-04-18T00:34:20.721Z,0.00
2019-04-18T00:35:26.237Z,0.00
2019-04-18T00:36:31.749Z,0.00
2019-04-18T00:37:37.259Z,0.00
2019-04-18T00:38:42.785Z,0.00
2019-04-18T00:39:48.282Z,0.00
2019-04-18T00:40:53.799Z,0.00
2019-04-18T00:41:59.304Z,0.00
2019-04-18T00:43:04.826Z,0.00
2019-04-18T00:44:10.336Z,0.00
2019-04-18T00:45:15.847Z,0.00
2019-04-18T00:46:21.357Z,0.00
2019-04-18T00:47:26.871Z,0.00
2019-04-18T00:48:32.381Z,0.00
2019-04-18T00:49:37.899Z,0.00
2019-04-18T00:50:43.417Z,0.00
2019-04-18T00:51:48.917Z,0.00
2019-04-18T00:52:54.428Z,0.00
2019-04-18T00:53:59.956Z,0.00
2019-04-18T00:55:05.467Z,0.00
2019-04-18T00:56:10.974Z,0.00
2019-04-18T00:57:16.490Z,0.00
2019-04-18T00:58:22.005Z,0.00
2019-04-18T00:59:27.511Z,0.00
2019-04-18T01:00:37.570Z,0.00
2019-04-18T01:01:38.531Z,0.00
2019-04-18T01:02:44.044Z,0.00
2019-04-18T01:03:49.556Z,0.00
2019-04-18T01:04:55.078Z,0.00
2019-04-18T01:06:00.588Z,0.00
2019-04-18T01:07:06.099Z,0.00
2019-04-18T01:08:11.613Z,0.00
2019-04-18T01:09:17.119Z,0.00
2019-04-18T01:10:22.646Z,0.00
2019-04-18T01:11:28.158Z,0.00
2019-04-18T01:12:33.662Z,0.00
2019-04-18T01:13:39.936Z,0.00
2019-04-18T01:14:45.829Z,0.00
2019-04-18T01:15:55.467Z,0.00
2019-04-18T01:16:58.613Z,0.00
2019-04-18T01:18:01.230Z,0.00
2019-04-18T01:19:06.736Z,0.00
2019-04-18T01:20:12.256Z,0.00
2019-04-18T01:21:17.762Z,0.00
2019-04-18T01:22:23.276Z,0.00
2019-04-18T01:23:28.781Z,0.00
2019-04-18T01:24:34.301Z,0.00
2019-04-18T01:25:39.807Z,0.00
2019-04-18T01:26:46.135Z,0.00
2019-04-18T01:27:52.869Z,0.00
2019-04-18T01:28:56.340Z,0.00
2019-04-18T01:30:01.857Z,0.00
2019-04-18T01:31:07.366Z,0.00
2019-04-18T01:32:12.890Z,0.00
2019-04-18T01:33:18.393Z,0.00
2019-04-18T01:34:23.905Z,0.00
2019-04-18T01:35:29.422Z,0.00
2019-04-18T01:36:34.934Z,0.00
2019-04-18T01:37:40.441Z,0.00
2019-04-18T01:38:45.953Z,0.00
2019-04-18T01:39:51.477Z,0.00
2019-04-18T01:40:56.978Z,0.00
2019-04-18T01:42:02.913Z,0.00
2019-04-18T01:43:08.010Z,0.00
2019-04-18T01:44:14.498Z,0.00
2019-04-18T01:45:19.365Z,0.00
2019-04-18T01:46:24.542Z,0.00
2019-04-18T01:47:30.060Z,0.00
2019-04-18T01:48:35.951Z,0.00
2019-04-18T01:49:43.420Z,0.00
2019-04-18T01:50:49.601Z,0.00
2019-04-18T01:51:54.255Z,0.00
2019-04-18T01:52:59.541Z,0.00
2019-04-18T01:54:08.677Z,0.00
2019-04-18T01:55:08.646Z,0.00
2019-04-18T01:56:14.163Z,0.00
2019-04-18T01:57:19.666Z,0.00
2019-04-18T01:58:25.168Z,0.00
2019-04-18T01:59:30.690Z,0.00
2019-04-18T02:00:36.232Z,0.00
2019-04-18T02:01:41.710Z,0.00
2019-04-18T02:02:47.226Z,0.00
2019-04-18T02:03:52.734Z,0.00
2019-04-18T02:05:01.638Z,0.00
2019-04-18T02:06:08.092Z,0.00
2019-04-18T02:07:11.259Z,0.00
2019-04-18T02:08:19.044Z,0.00
2019-04-18T02:09:20.850Z,0.00
2019-04-18T02:10:26.953Z,0.00
2019-04-18T02:11:31.330Z,0.00
2019-04-18T02:12:36.836Z,0.00
2019-04-18T02:13:42.352Z,0.00
2019-04-18T02:14:47.856Z,0.00
2019-04-18T02:15:53.363Z,0.00
2019-04-18T02:16:58.879Z,0.00
2019-04-18T02:18:04.684Z,0.00
2019-04-18T02:19:10.039Z,0.00
2019-04-18T02:20:15.418Z,0.00
2019-04-18T02:21:20.926Z,0.00
2019-04-18T02:22:26.433Z,0.00
2019-04-18T02:23:31.955Z,0.00
2019-04-18T02:24:37.465Z,0.00
2019-04-18T02:25:43.719Z,0.00
2019-04-18T02:26:49.421Z,0.00
2019-04-18T02:27:55.006Z,0.00
2019-04-18T02:29:01.367Z,0.00
2019-04-18T02:30:05.031Z,0.00
2019-04-18T02:31:10.606Z,0.00
2019-04-18T02:32:16.046Z,0.00
2019-04-18T02:33:21.559Z,0.00
2019-04-18T02:34:27.069Z,0.00
2019-04-18T02:35:32.600Z,0.00
2019-04-18T02:36:38.409Z,0.00
2019-04-18T02:37:45.433Z,0.00
2019-04-18T02:38:49.687Z,0.00
2019-04-18T02:39:57.009Z,0.00
2019-04-18T02:41:00.483Z,0.00
2019-04-18T02:42:05.662Z,0.00
2019-04-18T02:43:11.603Z,0.00
2019-04-18T02:44:16.678Z,0.00
2019-04-18T02:45:22.187Z,0.00
2019-04-18T02:46:27.702Z,0.00
2019-04-18T02:47:33.212Z,0.00
2019-04-18T02:48:38.729Z,0.00
2019-04-18T02:49:44.242Z,0.00
2019-04-18T02:50:49.748Z,0.00
2019-04-18T02:51:55.266Z,0.00
2019-04-18T02:53:00.775Z,0.00
2019-04-18T02:54:10.037Z,0.00
2019-04-18T02:55:17.023Z,0.00
2019-04-18T02:56:17.308Z,0.00
2019-04-18T02:57:22.830Z,0.00
2019-04-18T02:58:28.344Z,0.00
2019-04-18T02:59:33.841Z,0.00
2019-04-18T03:00:39.353Z,0.00
2019-04-18T03:01:44.878Z,0.00
2019-04-18T03:02:50.385Z,0.00
2019-04-18T03:03:55.893Z,0.00
2019-04-18T03:05:02.433Z,0.00
2019-04-18T03:06:11.571Z,0.00
2019-04-18T03:07:12.430Z,0.00
2019-04-18T03:08:17.946Z,0.00
2019-04-18T03:09:23.456Z,0.00
2019-04-18T03:10:29.023Z,0.00
2019-04-18T03:11:34.481Z,0.00
2019-04-18T03:12:39.998Z,0.00
2019-04-18T03:13:45.505Z,0.00
2019-04-18T03:14:51.011Z,0.00
2019-04-18T03:15:56.535Z,0.00
2019-04-18T03:17:02.045Z,0.00
2019-04-18T03:18:07.547Z,0.00
2019-04-18T03:19:13.680Z,0.00
2019-04-18T03:20:19.764Z,0.00
2019-04-18T03:21:25.540Z,0.00
2019-04-18T03:22:31.636Z,0.00
2019-04-18T03:23:39.145Z,0.00
2019-04-18T03:24:40.616Z,0.00
2019-04-18T03:25:46.134Z,0.00
2019-04-18T03:26:51.650Z,0.00
2019-04-18T03:27:57.157Z,0.00
2019-04-18T03:29:03.152Z,0.00
2019-04-18T03:30:08.400Z,0.00
2019-04-18T03:31:21.639Z,0.00
2019-04-18T03:32:19.200Z,0.00
2019-04-18T03:33:24.729Z,0.00
2019-04-18T03:34:30.226Z,0.00
2019-04-18T03:35:47.637Z,0.00
2019-04-18T03:36:41.249Z,0.00
2019-04-18T03:37:46.769Z,0.00
2019-04-18T03:38:52.277Z,0.00
2019-04-18T03:39:57.785Z,0.00
2019-04-18T03:41:03.302Z,0.00
2019-04-18T03:42:08.814Z,0.00
2019-04-18T03:43:14.697Z,0.00
2019-04-18T03:44:19.829Z,0.00
2019-04-18T03:45:25.353Z,0.00
2019-04-18T03:46:30.858Z,0.00
2019-04-18T03:47:36.370Z,0.00
2019-04-18T03:48:41.882Z,0.00
2019-04-18T03:49:47.397Z,0.00
2019-04-18T03:50:52.911Z,0.00
2019-04-18T03:51:58.419Z,0.00
2019-04-18T03:53:04.372Z,0.00
2019-04-18T03:54:10.095Z,0.00
2019-04-18T03:55:16.730Z,0.00
2019-04-18T03:56:20.473Z,0.00
2019-04-18T03:57:25.973Z,0.00
2019-04-18T03:58:31.489Z,0.00
2019-04-18T03:59:36.999Z,0.00
2019-04-18T04:00:42.511Z,0.00
2019-04-18T04:01:48.016Z,0.00
2019-04-18T04:02:53.557Z,0.00
2019-04-18T04:03:59.209Z,0.00
2019-04-18T04:05:04.585Z,0.00
2019-04-18T04:06:17.406Z,0.00
2019-04-18T04:07:15.589Z,0.00
2019-04-18T04:08:21.089Z,0.00
2019-04-18T04:09:26.607Z,0.00
2019-04-18T04:10:32.122Z,0.00
2019-04-18T04:11:37.627Z,0.00
2019-04-18T04:12:43.136Z,0.00
2019-04-18T04:13:48.652Z,0.00
2019-04-18T04:14:54.166Z,0.00
2019-04-18T04:15:59.687Z,0.00
2019-04-18T04:17:05.216Z,0.00
2019-04-18T04:18:11.411Z,0.00
2019-04-18T04:19:21.019Z,0.00
2019-04-18T04:20:23.046Z,0.00
2019-04-18T04:21:27.935Z,0.00
2019-04-18T04:22:32.745Z,0.00
2019-04-18T04:23:38.262Z,0.00
2019-04-18T04:24:43.771Z,0.00
2019-04-18T04:25:49.274Z,0.00
2019-04-18T04:26:54.872Z,0.00
2019-04-18T04:28:00.308Z,0.00
2019-04-18T04:29:05.812Z,0.00
2019-04-18T04:30:14.889Z,0.00
2019-04-18T04:31:21.885Z,0.00
2019-04-18T04:32:22.345Z,0.00
2019-04-18T04:33:33.288Z,0.00
2019-04-18T04:34:33.377Z,0.00
2019-04-18T04:35:38.881Z,0.00
2019-04-18T04:36:44.408Z,0.00
2019-04-18T04:37:49.904Z,0.00
2019-04-18T04:38:55.430Z,0.00
2019-04-18T04:40:00.945Z,0.00
2019-04-18T04:41:06.489Z,0.00
2019-04-18T04:42:15.519Z,0.00
2019-04-18T04:43:20.493Z,0.00
2019-04-18T04:44:26.849Z,0.00
2019-04-18T04:45:31.725Z,0.00
2019-04-18T04:46:37.297Z,0.00
2019-04-18T04:47:39.515Z,0.00
2019-04-18T04:48:45.018Z,0.00
2019-04-18T04:49:50.533Z,0.00
2019-04-18T04:50:56.056Z,0.00
2019-04-18T04:52:01.568Z,0.00
2019-04-18T04:53:07.072Z,0.00
2019-04-18T04:54:12.636Z,0.00
2019-04-18T04:55:18.097Z,0.00
2019-04-18T04:56:23.615Z,0.00
2019-04-18T04:57:29.116Z,0.00
2019-04-18T04:58:35.544Z,0.00
2019-04-18T04:59:46.142Z,0.00
2019-04-18T05:00:45.655Z,0.00
2019-04-18T05:01:51.169Z,0.00
2019-04-18T05:02:56.679Z,0.00
2019-04-18T05:04:02.188Z,0.00
2019-04-18T05:05:07.795Z,0.00
2019-04-18T05:06:13.210Z,0.00
2019-04-18T05:07:20.593Z,0.00
2019-04-18T05:08:26.114Z,0.00
2019-04-18T05:09:32.298Z,0.00
2019-04-18T05:10:35.277Z,0.00
2019-04-18T05:11:40.768Z,0.00
2019-04-18T05:12:46.285Z,0.00
2019-04-18T05:13:51.788Z,0.00
2019-04-18T05:14:57.306Z,0.00
2019-04-18T05:16:03.408Z,0.00
2019-04-18T05:17:08.328Z,0.00
2019-04-18T05:18:13.898Z,5.63
2019-04-18T05:19:19.365Z,5.63
2019-04-18T05:20:24.873Z,5.63
2019-04-18T05:21:30.372Z,5.63
2019-04-18T05:22:35.884Z,5.63
2019-04-18T05:23:41.407Z,5.63
2019-04-18T05:24:46.913Z,5.63
2019-04-18T05:25:52.424Z,5.63
2019-04-18T05:26:57.936Z,5.63
2019-04-18T05:28:03.470Z,5.63
2019-04-18T05:29:09.227Z,5.63
2019-04-18T05:30:14.468Z,5.63
2019-04-18T05:31:21.801Z,5.63
2019-04-18T05:32:25.905Z,5.63
2019-04-18T05:33:31.006Z,5.63
2019-04-18T05:34:36.517Z,5.63
2019-04-18T05:35:42.029Z,5.63
2019-04-18T05:36:55.892Z,5.63
2019-04-18T05:37:53.053Z,5.63
2019-04-18T05:38:58.719Z,5.63
2019-04-18T05:40:04.862Z,5.63
2019-04-18T05:41:12.747Z,5.63
2019-04-18T05:42:17.250Z,5.63
2019-04-18T05:43:25.656Z,5.63
2019-04-18T05:44:28.191Z,5.63
2019-04-18T05:45:31.648Z,5.63
2019-04-18T05:46:37.162Z,5.63
2019-04-18T05:47:42.663Z,5.63
2019-04-18T05:48:48.178Z,5.63
2019-04-18T05:49:53.683Z,11.25
2019-04-18T05:50:59.203Z,11.25
2019-04-18T05:52:04.708Z,11.25
2019-04-18T05:53:10.213Z,11.25
2019-04-18T05:54:16.227Z,11.25
2019-04-18T05:55:21.992Z,11.25
2019-04-18T05:56:27.959Z,11.25
2019-04-18T05:57:34.101Z,11.25
2019-04-18T05:58:39.024Z,11.25
2019-04-18T05:59:43.300Z,11.25
2019-04-18T06:00:48.803Z,11.25
2019-04-18T06:01:54.346Z,11.25
2019-04-18T06:02:59.830Z,11.25
2019-04-18T06:04:05.352Z,11.25
2019-04-18T06:05:11.069Z,11.25
2019-04-18T06:06:17.543Z,11.25
2019-04-18T06:07:26.653Z,11.25
2019-04-18T06:08:31.658Z,11.25
2019-04-18T06:09:36.280Z,11.25
2019-04-18T06:10:38.409Z,11.25
2019-04-18T06:11:43.931Z,11.25
2019-04-18T06:12:49.444Z,11.25
2019-04-18T06:13:54.948Z,16.88
2019-04-18T06:15:00.458Z,16.88
2019-04-18T06:16:06.312Z,16.88
2019-04-18T06:17:11.891Z,16.88
2019-04-18T06:18:16.993Z,16.88
2019-04-18T06:19:23.250Z,16.88
2019-04-18T06:20:31.609Z,16.88
2019-04-18T06:21:33.528Z,16.88
2019-04-18T06:22:39.064Z,16.88
2019-04-18T06:23:44.562Z,16.88
2019-04-18T06:24:50.066Z,16.88
2019-04-18T06:25:55.574Z,16.88
2019-04-18T06:27:02.263Z,16.88
2019-04-18T06:28:07.210Z,16.88
2019-04-18T06:29:12.419Z,16.88
2019-04-18T06:30:17.794Z,16.88
2019-04-18T06:31:23.161Z,16.88
2019-04-18T06:32:28.661Z,16.88
2019-04-18T06:33:36.558Z,16.88
2019-04-18T06:34:40.943Z,16.88
2019-04-18T06:35:46.450Z,16.88
2019-04-18T06:36:50.707Z,16.88
2019-04-18T06:37:56.217Z,16.88
2019-04-18T06:39:01.730Z,16.88
2019-04-18T06:40:07.283Z,16.88
2019-04-18T06:41:12.757Z,16.88
2019-04-18T06:42:18.992Z,16.88
2019-04-18T06:43:24.621Z,16.88
2019-04-18T06:44:29.771Z,16.88
2019-04-18T06:45:37.802Z,16.88
2019-04-18T06:46:40.312Z,16.88
2019-04-18T06:47:45.835Z,16.88
2019-04-18T06:48:53.415Z,16.88
2019-04-18T06:49:56.851Z,16.88
2019-04-18T06:51:06.273Z,16.88
2019-04-18T06:52:08.035Z,16.88
2019-04-18T06:53:18.115Z,16.88
2019-04-18T06:54:18.902Z,16.88
2019-04-18T06:55:24.420Z,16.88
2019-04-18T06:56:29.918Z,16.88
2019-04-18T06:57:35.839Z,16.88
2019-04-18T06:58:44.645Z,16.88
2019-04-18T06:59:46.465Z,16.88
2019-04-18T07:00:51.976Z,16.88
2019-04-18T07:01:57.488Z,16.88
2019-04-18T07:03:03.036Z,16.88
2019-04-18T07:04:08.507Z,16.88
2019-04-18T07:05:14.023Z,16.88
2019-04-18T07:06:31.804Z,16.88
2019-04-18T07:07:37.665Z,16.88
2019-04-18T07:08:44.020Z,16.88
2019-04-18T07:09:53.347Z,16.88
2019-04-18T07:10:55.503Z,16.88
2019-04-18T07:11:47.142Z,16.88
2019-04-18T07:12:52.610Z,16.88
2019-04-18T07:13:58.116Z,16.88
2019-04-18T07:15:04.580Z,16.88
2019-04-18T07:16:10.245Z,16.88
2019-04-18T07:17:20.244Z,16.88
2019-04-18T07:18:20.759Z,16.88
2019-04-18T07:19:25.746Z,16.88
2019-04-18T07:20:31.191Z,16.88
2019-04-18T07:21:37.273Z,16.88
2019-04-18T07:22:42.221Z,16.88
2019-04-18T07:23:47.738Z,16.88
2019-04-18T07:24:53.255Z,16.88
2019-04-18T07:25:58.759Z,16.88
2019-04-18T07:27:04.267Z,22.50
2019-04-18T07:28:09.789Z,22.50
2019-04-18T07:29:15.301Z,22.50
2019-04-18T07:30:20.815Z,22.50
2019-04-18T07:31:31.738Z,22.50
2019-04-18T07:32:31.831Z,22.50
2019-04-18T07:33:37.344Z,22.50
2019-04-18T07:34:42.884Z,22.50
2019-04-18T07:35:48.384Z,22.50
2019-04-18T07:36:53.880Z,28.13
2019-04-18T07:37:59.404Z,28.13
2019-04-18T07:39:04.909Z,28.13
2019-04-18T07:40:12.515Z,28.13
2019-04-18T07:41:19.032Z,28.13
2019-04-18T07:42:21.480Z,28.13
2019-04-18T07:43:26.968Z,28.13
2019-04-18T07:44:32.480Z,28.13
2019-04-18T07:45:37.988Z,28.13
2019-04-18T07:46:43.562Z,28.13
2019-04-18T07:47:49.030Z,28.13
2019-04-18T07:48:54.526Z,28.13
2019-04-18T07:50:00.045Z,28.13
2019-04-18T07:51:05.663Z,28.13
2019-04-18T07:52:11.067Z,28.13
2019-04-18T07:53:21.395Z,28.13
2019-04-18T07:54:22.090Z,28.13
2019-04-18T07:55:29.854Z,28.13
2019-04-18T07:56:33.115Z,28.13
2019-04-18T07:57:38.637Z,28.13
2019-04-18T07:58:44.145Z,28.13
2019-04-18T07:59:51.574Z,28.13
2019-04-18T08:00:55.178Z,28.13
2019-04-18T08:02:01.615Z,28.13
2019-04-18T08:03:09.709Z,28.13
2019-04-18T08:04:15.123Z,28.13
2019-04-18T08:05:17.241Z,28.13
2019-04-18T08:06:24.842Z,28.13
2019-04-18T08:07:28.250Z,28.13
2019-04-18T08:08:33.762Z,28.13
2019-04-18T08:09:39.421Z,28.13
2019-04-18T08:10:44.790Z,28.13
2019-04-18T08:11:50.299Z,28.13
2019-04-18T08:12:55.820Z,28.13
2019-04-18T08:14:01.336Z,28.13
2019-04-18T08:15:06.848Z,28.13
2019-04-18T08:16:12.515Z,28.13
2019-04-18T08:17:19.524Z,28.13
2019-04-18T08:18:26.947Z,28.13
2019-04-18T08:19:28.904Z,28.13
2019-04-18T08:20:34.410Z,28.13
2019-04-18T08:21:39.923Z,28.13
2019-04-18T08:22:45.451Z,28.13
2019-04-18T08:23:51.780Z,28.13
2019-04-18T08:24:58.245Z,28.13
2019-04-18T08:26:01.983Z,28.13
2019-04-18T08:27:07.496Z,28.13
2019-04-18T08:28:16.230Z,28.13
2019-04-18T08:29:26.088Z,28.13
2019-04-18T08:30:26.978Z,28.13
2019-04-18T08:31:33.792Z,28.13
2019-04-18T08:32:35.067Z,28.13
2019-04-18T08:33:40.578Z,28.13
2019-04-18T08:34:46.083Z,28.13
2019-04-18T08:35:51.606Z,33.75
2019-04-18T08:36:57.123Z,33.75
2019-04-18T08:38:02.638Z,28.13
2019-04-18T08:39:09.249Z,28.13
2019-04-18T08:40:14.089Z,28.13
2019-04-18T08:41:21.546Z,28.13
2019-04-18T08:42:24.684Z,28.13
2019-04-18T08:43:30.224Z,28.13
2019-04-18T08:44:35.718Z,28.13
2019-04-18T08:45:41.231Z,28.13
2019-04-18T08:46:46.753Z,22.50
2019-04-18T08:47:52.252Z,22.50
2019-04-18T08:48:59.865Z,22.50
2019-04-18T08:50:06.421Z,22.50
2019-04-18T08:51:08.803Z,22.50
2019-04-18T08:52:14.346Z,22.50
2019-04-18T08:53:19.969Z,22.50
2019-04-18T08:54:25.355Z,22.50
2019-04-18T08:55:30.859Z,22.50
2019-04-18T08:56:36.991Z,22.50
2019-04-18T08:57:44.792Z,22.50
2019-04-18T08:58:47.398Z,22.50
2019-04-18T08:59:52.912Z,28.13
2019-04-18T09:00:58.432Z,28.13
2019-04-18T09:02:03.961Z,28.13
2019-04-18T09:03:23.445Z,28.13
2019-04-18T09:04:14.981Z,28.13
2019-04-18T09:05:27.557Z,28.13
2019-04-18T09:06:32.472Z,33.75
2019-04-18T09:07:33.470Z,33.75
2019-04-18T09:08:37.508Z,33.75
2019-04-18T09:09:42.818Z,39.38
2019-04-18T09:10:49.502Z,39.38
2019-04-18T09:12:01.054Z,39.38
2019-04-18T09:12:59.359Z,33.75
2019-04-18T09:14:05.529Z,33.75
2019-04-18T09:15:11.208Z,33.75
2019-04-18T09:16:16.522Z,33.75
2019-04-18T09:17:22.185Z,33.75
2019-04-18T09:18:27.185Z,39.38
2019-04-18T09:19:33.161Z,45.00
2019-04-18T09:20:38.751Z,39.38
2019-04-18T09:21:43.715Z,39.38
2019-04-18T09:22:48.827Z,45.00
2019-04-18T09:23:55.074Z,39.38
2019-04-18T09:25:00.188Z,39.38
2019-04-18T09:26:06.157Z,39.38
2019-04-18T09:27:14.296Z,39.38
2019-04-18T09:28:16.295Z,39.38
2019-04-18T09:29:21.811Z,39.38
2019-04-18T09:30:27.332Z,39.38
2019-04-18T09:31:32.854Z,33.75
2019-04-18T09:32:38.371Z,33.75
2019-04-18T09:33:43.872Z,33.75
2019-04-18T09:34:49.384Z,39.38
2019-04-18T09:35:58.437Z,39.38
2019-04-18T09:37:02.117Z,39.38
2019-04-18T09:38:05.942Z,39.38
2019-04-18T09:39:12.289Z,39.38
2019-04-18T09:40:22.115Z,39.38
2019-04-18T09:41:23.047Z,39.38
2019-04-18T09:42:28.010Z,39.38
2019-04-18T09:43:33.513Z,39.38
2019-04-18T09:44:39.023Z,39.38
2019-04-18T09:45:44.565Z,39.38
2019-04-18T09:46:50.056Z,39.38
2019-04-18T09:47:58.184Z,39.38
2019-04-18T09:49:03.724Z,39.38
2019-04-18T09:50:08.446Z,45.00
2019-04-18T09:51:12.111Z,45.00
2019-04-18T09:52:18.145Z,28.13
2019-04-18T09:53:23.141Z,45.00
2019-04-18T09:54:28.662Z,45.00
2019-04-18T09:55:34.170Z,45.00
2019-04-18T09:56:39.686Z,45.00
2019-04-18T09:57:45.214Z,45.00
2019-04-18T09:58:50.829Z,45.00
2019-04-18T10:00:09.349Z,45.00
2019-04-18T10:01:01.753Z,45.00
2019-04-18T10:02:07.275Z,45.00
2019-04-18T10:03:12.781Z,45.00
2019-04-18T10:04:18.309Z,39.38
2019-04-18T10:05:27.501Z,45.00
2019-04-18T10:06:29.334Z,39.38
2019-04-18T10:07:34.842Z,45.00
2019-04-18T10:08:40.359Z,45.00
2019-04-18T10:09:45.875Z,45.00
2019-04-18T10:10:51.404Z,45.00
2019-04-18T10:11:56.924Z,45.00
2019-04-18T10:13:02.454Z,45.00
2019-04-18T10:14:07.949Z,45.00
2019-04-18T10:15:17.193Z,45.00
2019-04-18T10:16:19.244Z,45.00
2019-04-18T10:17:24.482Z,45.00
2019-04-18T10:18:31.096Z,45.00
2019-04-18T10:19:35.517Z,45.00
2019-04-18T10:20:43.034Z,45.00
2019-04-18T10:21:46.566Z,45.00
2019-04-18T10:22:53.673Z,33.75
2019-04-18T10:23:57.597Z,45.00
2019-04-18T10:25:03.118Z,45.00
2019-04-18T10:26:12.466Z,45.00
2019-04-18T10:27:14.132Z,45.00
2019-04-18T10:28:19.654Z,45.00
2019-04-18T10:29:25.179Z,45.00
2019-04-18T10:30:31.754Z,45.00
2019-04-18T10:31:36.195Z,50.63
2019-04-18T10:32:41.711Z,50.63
2019-04-18T10:33:47.234Z,50.63
2019-04-18T10:34:53.266Z,50.63
2019-04-18T10:35:58.275Z,50.63
2019-04-18T10:37:03.780Z,50.63
2019-04-18T10:38:10.176Z,50.63
2019-04-18T10:39:14.823Z,50.63
2019-04-18T10:40:20.346Z,50.63
2019-04-18T10:41:25.853Z,50.63
2019-04-18T10:42:31.365Z,50.63
2019-04-18T10:43:36.881Z,50.63
2019-04-18T10:44:42.394Z,45.00
2019-04-18T10:45:47.911Z,50.63
2019-04-18T10:46:53.431Z,50.63
2019-04-18T10:47:58.947Z,50.63
2019-04-18T10:49:05.312Z,50.63
2019-04-18T10:50:10.015Z,50.63
2019-04-18T10:51:15.501Z,56.25
2019-04-18T10:52:21.020Z,39.38
2019-04-18T10:53:26.533Z,33.75
2019-04-18T10:54:32.045Z,50.63
2019-04-18T10:55:37.585Z,50.63
2019-04-18T10:56:43.090Z,56.25
2019-04-18T10:57:48.615Z,56.25
2019-04-18T10:58:54.126Z,56.25
2019-04-18T10:59:59.641Z,56.25
2019-04-18T11:01:06.209Z,56.25
2019-04-18T11:02:10.669Z,56.25
2019-04-18T11:03:16.623Z,56.25
2019-04-18T11:04:21.784Z,56.25
2019-04-18T11:05:31.101Z,56.25
2019-04-18T11:06:32.778Z,56.25
2019-04-18T11:07:38.338Z,56.25
2019-04-18T11:08:43.787Z,56.25
2019-04-18T11:09:49.314Z,56.25
2019-04-18T11:10:54.821Z,50.63
2019-04-18T11:12:00.332Z,50.63
2019-04-18T11:13:05.851Z,50.63
2019-04-18T11:14:11.651Z,56.25
2019-04-18T11:15:16.879Z,56.25
2019-04-18T11:16:22.399Z,56.25
2019-04-18T11:17:27.928Z,56.25
2019-04-18T11:18:33.432Z,56.25
2019-04-18T11:19:38.954Z,56.25
2019-04-18T11:20:44.468Z,56.25
2019-04-18T11:21:49.997Z,56.25
2019-04-18T11:22:55.512Z,61.88
2019-04-18T11:24:01.022Z,61.88
2019-04-18T11:26:12.124Z,61.88
2019-04-18T11:27:18.109Z,67.50
2019-04-18T11:28:23.170Z,67.50
2019-04-18T11:29:28.688Z,67.50
2019-04-18T11:30:34.193Z,67.50
2019-04-18T11:31:39.715Z,67.50
2019-04-18T11:32:46.237Z,67.50
2019-04-18T11:33:50.750Z,67.50
2019-04-18T11:34:56.278Z,67.50
2019-04-18T11:36:01.798Z,67.50
2019-04-18T11:37:07.342Z,67.50
2019-04-18T11:38:12.972Z,73.13
2019-04-18T11:39:22.379Z,73.13
2019-04-18T11:40:28.968Z,73.13
2019-04-18T11:41:29.385Z,67.50
2019-04-18T11:42:34.891Z,67.50
2019-04-18T11:43:40.428Z,67.50
2019-04-18T11:44:45.943Z,67.50
2019-04-18T11:45:52.505Z,67.50
2019-04-18T11:46:57.214Z,73.13
2019-04-18T11:48:02.681Z,73.13
2019-04-18T11:49:08.027Z,73.13
2019-04-18T11:50:13.550Z,73.13
2019-04-18T11:51:19.572Z,73.13
2019-04-18T11:52:25.668Z,67.50
2019-04-18T11:53:30.091Z,67.50
2019-04-18T11:54:35.670Z,67.50
2019-04-18T11:55:41.405Z,67.50
2019-04-18T11:56:46.647Z,67.50
2019-04-18T11:57:52.221Z,61.88
2019-04-18T11:58:58.693Z,67.50
2019-04-18T12:00:03.322Z,67.50
2019-04-18T12:01:19.410Z,67.50
2019-04-18T12:02:14.210Z,61.88
2019-04-18T12:03:19.743Z,61.88
2019-04-18T12:04:25.283Z,61.88
2019-04-18T12:05:31.809Z,61.88
2019-04-18T12:06:36.320Z,61.88
2019-04-18T12:07:43.500Z,56.25
2019-04-18T12:08:47.338Z,61.88
2019-04-18T12:09:53.035Z,61.88
2019-04-18T12:10:58.430Z,61.88
2019-04-18T12:12:05.188Z,61.88
2019-04-18T12:13:10.137Z,61.88
2019-04-18T12:14:14.929Z,61.88
2019-04-18T12:15:20.463Z,61.88
2019-04-18T12:16:25.992Z,61.88
2019-04-18T12:17:31.525Z,56.25
2019-04-18T12:18:38.041Z,56.25
2019-04-18T12:19:42.525Z,56.25
2019-04-18T12:20:48.062Z,56.25
2019-04-18T12:21:53.556Z,56.25
2019-04-18T12:23:05.854Z,56.25
2019-04-18T12:24:04.597Z,56.25
2019-04-18T12:25:15.329Z,56.25
2019-04-18T12:26:15.645Z,56.25
2019-04-18T12:27:21.150Z,56.25
2019-04-18T12:28:26.689Z,56.25
2019-04-18T12:29:35.033Z,56.25
2019-04-18T12:30:37.703Z,61.88
2019-04-18T12:31:44.250Z,56.25
2019-04-18T12:32:48.761Z,56.25
2019-04-18T12:33:54.282Z,56.25
2019-04-18T12:34:59.795Z,56.25
2019-04-18T12:36:05.328Z,56.25
2019-04-18T12:37:10.810Z,56.25
2019-04-18T12:38:17.357Z,56.25
2019-04-18T12:39:21.879Z,56.25
2019-04-18T12:40:27.378Z,56.25
2019-04-18T12:41:32.894Z,56.25
2019-04-18T12:42:38.436Z,56.25
2019-04-18T12:43:43.935Z,56.25
2019-04-18T12:44:50.473Z,56.25
2019-04-18T12:45:54.969Z,56.25
2019-04-18T12:47:00.487Z,56.25
2019-04-18T12:48:06.010Z,56.25
2019-04-18T12:49:11.530Z,56.25
2019-04-18T12:50:17.518Z,56.25
2019-04-18T12:51:23.590Z,56.25
2019-04-18T12:52:28.094Z,56.25
2019-04-18T12:53:33.626Z,56.25
2019-04-18T12:54:39.147Z,56.25
2019-04-18T12:55:44.663Z,56.25
2019-04-18T12:56:50.149Z,56.25
2019-04-18T12:57:56.698Z,56.25
2019-04-18T12:59:01.198Z,61.88
2019-04-18T13:00:06.709Z,56.25
2019-04-18T13:01:12.511Z,56.25
2019-04-18T13:02:17.752Z,56.25
2019-04-18T13:03:23.268Z,56.25
2019-04-18T13:04:29.804Z,61.88
2019-04-18T13:05:34.301Z,61.88
2019-04-18T13:06:39.851Z,56.25
2019-04-18T13:07:45.354Z,56.25
2019-04-18T13:08:50.858Z,61.88
2019-04-18T13:09:56.404Z,61.88
2019-04-18T13:11:02.969Z,61.88
2019-04-18T13:12:07.431Z,61.88
2019-04-18T13:13:14.848Z,61.88
2019-04-18T13:14:18.476Z,61.88
2019-04-18T13:15:23.984Z,61.88
2019-04-18T13:16:29.512Z,56.25
2019-04-18T13:17:36.030Z,56.25
